createdAt,value
2019-04-05T00:00:37.999Z,51.77
2019-04-05T00:03:07.657Z,51.87
2019-04-05T00:05:40.875Z,51.95
2019-04-05T00:08:10.484Z,52.07
2019-04-05T00:10:40.169Z,52.19
2019-04-05T00:13:09.790Z,52.31
2019-04-05T00:15:39.971Z,52.54
2019-04-05T00:18:09.642Z,52.71
2019-04-05T00:20:39.261Z,52.79
2019-04-05T00:23:08.885Z,52.91
2019-04-05T00:25:39.283Z,52.91
2019-04-05T00:28:10.483Z,53.43
2019-04-05T00:30:40.111Z,53.50
2019-04-05T00:33:09.818Z,53.53
2019-04-05T00:35:40.129Z,53.67
2019-04-05T00:38:10.126Z,53.70
2019-04-05T00:40:44.549Z,53.66
2019-04-05T00:43:15.996Z,53.63
2019-04-05T00:45:46.009Z,53.53
2019-04-05T00:48:15.781Z,53.83
2019-04-05T00:50:46.935Z,53.81
2019-04-05T00:53:17.396Z,53.76
2019-04-05T00:55:47.935Z,54.16
2019-04-05T00:58:17.976Z,54.48
2019-04-05T01:00:47.564Z,54.49
2019-04-05T01:03:17.260Z,54.95
2019-04-05T01:05:46.885Z,54.80
2019-04-05T01:08:16.510Z,54.96
2019-04-05T01:10:46.426Z,55.07
2019-04-05T01:13:16.323Z,54.92
2019-04-05T01:15:47.426Z,54.74
2019-04-05T01:18:17.123Z,54.79
2019-04-05T01:20:49.054Z,54.64
2019-04-05T01:23:20.391Z,54.58
2019-04-05T01:25:52.599Z,54.53
2019-04-05T01:28:23.846Z,54.55
2019-04-05T01:30:54.143Z,54.78
2019-04-05T01:33:24.608Z,54.73
2019-04-05T01:35:54.698Z,54.80
2019-04-05T01:38:24.401Z,54.89
2019-04-05T01:40:57.381Z,55.14
2019-04-05T01:43:27.522Z,55.46
2019-04-05T01:45:58.959Z,55.72
2019-04-05T01:48:30.988Z,56.26
2019-04-05T01:51:00.619Z,56.39
2019-04-05T01:53:30.241Z,56.25
2019-04-05T01:55:59.968Z,56.34
2019-04-05T01:58:29.608Z,56.51
2019-04-05T02:00:59.261Z,56.30
2019-04-05T02:03:28.945Z,56.03
2019-04-05T02:05:58.649Z,56.26
2019-04-05T02:08:28.353Z,56.39
2019-04-05T02:10:58.586Z,56.26
2019-04-05T02:13:29.177Z,56.23
2019-04-05T02:16:06.316Z,56.55
2019-04-05T02:18:30.546Z,56.79
2019-04-05T02:21:00.177Z,56.75
2019-04-05T02:23:29.802Z,56.75
2019-04-05T02:25:59.592Z,57.04
2019-04-05T02:28:29.220Z,56.99
2019-04-05T02:30:58.919Z,57.46
2019-04-05T02:33:28.580Z,57.98
2019-04-05T02:35:59.654Z,58.08
2019-04-05T02:38:30.035Z,57.84
2019-04-05T02:41:01.933Z,57.86
2019-04-05T02:43:34.290Z,57.93
2019-04-05T02:46:04.586Z,58.02
2019-04-05T02:48:37.263Z,58.00
2019-04-05T02:51:08.716Z,57.88
2019-04-05T02:53:39.488Z,57.56
2019-04-05T02:56:09.822Z,57.46
2019-04-05T02:58:41.090Z,57.30
2019-04-05T03:01:11.205Z,57.35
2019-04-05T03:03:41.973Z,57.93
2019-04-05T03:06:11.950Z,58.27
2019-04-05T03:08:43.495Z,58.41
2019-04-05T03:11:14.043Z,58.29
2019-04-05T03:13:49.833Z,57.91
2019-04-05T03:16:38.510Z,57.73
2019-04-05T03:18:57.034Z,58.01
2019-04-05T03:21:29.342Z,58.09
2019-04-05T03:24:02.252Z,58.09
2019-04-05T03:26:34.977Z,58.01
2019-04-05T03:29:08.030Z,58.46
2019-04-05T03:31:38.778Z,59.35
2019-04-05T03:34:08.991Z,59.35
2019-04-05T03:36:39.569Z,59.33
2019-04-05T03:39:09.954Z,59.77
2019-04-05T03:41:40.179Z,59.77
2019-04-05T03:44:10.683Z,59.81
2019-04-05T03:46:55.306Z,59.57
2019-04-05T03:49:12.654Z,59.63
2019-04-05T03:51:42.714Z,59.62
2019-04-05T03:54:12.784Z,60.16
2019-04-05T03:56:42.747Z,60.35
2019-04-05T03:59:12.460Z,60.87
2019-04-05T04:01:42.532Z,61.23
2019-04-05T04:04:12.255Z,61.44
2019-04-05T04:06:41.969Z,61.44
2019-04-05T04:09:11.749Z,61.33
2019-04-05T04:11:41.738Z,61.33
2019-04-05T04:14:12.115Z,61.10
2019-04-05T04:16:41.756Z,61.15
2019-04-05T04:19:12.926Z,61.68
2019-04-05T04:22:08.396Z,61.89
2019-04-05T04:24:38.682Z,62.04
2019-04-05T04:27:08.567Z,62.38
2019-04-05T04:29:38.642Z,62.19
2019-04-05T04:32:08.632Z,61.90
2019-04-05T04:34:38.671Z,61.38
2019-04-05T04:37:08.294Z,61.31
2019-04-05T04:39:38.251Z,61.00
2019-04-05T04:42:07.888Z,60.95
2019-04-05T04:44:37.563Z,61.22
2019-04-05T04:47:08.055Z,61.11
2019-04-05T04:49:37.835Z,60.99
2019-04-05T04:52:08.674Z,60.84
2019-04-05T04:54:38.421Z,60.57
2019-04-05T04:57:08.764Z,60.48
2019-04-05T04:59:39.031Z,60.48
2019-04-05T05:02:08.949Z,60.46
2019-04-05T05:04:38.722Z,60.41
2019-04-05T05:07:08.508Z,60.37
2019-04-05T05:09:38.456Z,60.41
2019-04-05T05:12:08.370Z,60.48
2019-04-05T05:14:38.076Z,60.37
2019-04-05T05:17:07.875Z,60.48
2019-04-05T05:19:37.756Z,60.72
2019-04-05T05:22:07.442Z,60.52
2019-04-05T05:24:37.116Z,60.55
2019-04-05T05:27:08.662Z,60.47
2019-04-05T05:29:38.365Z,60.50
2019-04-05T05:32:09.715Z,60.33
2019-04-05T05:34:39.601Z,60.27
2019-04-05T05:37:09.403Z,60.23
2019-04-05T05:39:39.196Z,60.28
2019-04-05T05:42:08.953Z,60.38
2019-04-05T05:44:38.581Z,60.50
2019-04-05T05:47:08.272Z,60.49
2019-04-05T05:49:38.177Z,60.50
2019-04-05T05:52:07.838Z,60.48
2019-04-05T05:54:37.505Z,60.55
2019-04-05T05:57:07.131Z,60.55
2019-04-05T05:59:36.822Z,60.57
2019-04-05T06:02:07.339Z,60.82
2019-04-05T06:04:37.291Z,60.89
2019-04-05T06:07:07.285Z,60.82
2019-04-05T06:09:36.993Z,61.09
2019-04-05T06:12:06.699Z,61.26
2019-04-05T06:14:36.447Z,61.39
2019-04-05T06:17:06.122Z,61.54
2019-04-05T06:19:35.749Z,61.67
2019-04-05T06:22:05.404Z,61.58
2019-04-05T06:24:35.067Z,61.81
2019-04-05T06:27:05.606Z,61.75
2019-04-05T06:29:35.831Z,61.66
2019-04-05T06:32:05.579Z,61.56
2019-04-05T06:34:35.703Z,61.29
2019-04-05T06:37:05.379Z,61.25
2019-04-05T06:39:35.057Z,61.19
2019-04-05T06:42:04.776Z,61.21
2019-04-05T06:44:34.391Z,61.02
2019-04-05T06:47:04.087Z,60.55
2019-04-05T06:49:33.783Z,59.77
2019-04-05T06:52:03.440Z,58.82
2019-04-05T06:54:33.130Z,58.09
2019-04-05T06:57:02.943Z,57.33
2019-04-05T06:59:32.636Z,57.01
2019-04-05T07:02:02.400Z,56.63
2019-04-05T07:04:32.114Z,55.95
2019-04-05T07:07:01.717Z,55.31
2019-04-05T07:09:33.983Z,55.10
2019-04-05T07:12:02.791Z,54.92
2019-04-05T07:14:32.431Z,54.59
2019-04-05T07:17:02.133Z,54.46
2019-04-05T07:19:31.775Z,54.17
2019-04-05T07:22:01.476Z,54.11
2019-04-05T07:24:31.213Z,53.65
2019-04-05T07:30:50.010Z,53.11
2019-04-05T07:32:59.923Z,52.91
2019-04-05T07:35:33.628Z,52.75
2019-04-05T07:38:00.957Z,52.85
2019-04-05T07:40:30.597Z,52.76
2019-04-05T07:43:00.270Z,52.62
2019-04-05T07:45:29.974Z,52.13
2019-04-05T07:47:59.666Z,51.71
2019-04-05T07:50:29.403Z,51.47
2019-04-05T07:52:59.085Z,51.85
2019-04-05T07:55:28.813Z,52.01
2019-04-05T07:57:59.377Z,51.67
2019-04-05T08:00:43.694Z,51.09
2019-04-05T08:03:13.441Z,50.74
2019-04-05T08:05:43.079Z,50.15
2019-04-05T08:08:15.806Z,49.94
2019-04-05T08:10:46.206Z,49.84
2019-04-05T08:13:16.679Z,49.55
2019-04-05T08:15:46.457Z,49.21
2019-04-05T08:18:15.914Z,49.01
2019-04-05T08:20:45.561Z,48.75
2019-04-05T08:23:15.331Z,48.80
2019-04-05T08:25:45.341Z,48.62
2019-04-05T08:28:15.202Z,48.31
2019-04-05T08:30:45.015Z,48.76
2019-04-05T08:33:14.696Z,49.17
2019-04-05T08:35:44.347Z,49.32
2019-04-05T08:38:14.073Z,49.37
2019-04-05T08:40:43.680Z,49.10
2019-04-05T08:43:13.797Z,48.95
2019-04-05T08:45:43.492Z,49.32
2019-04-05T08:48:13.126Z,49.73
2019-04-05T08:50:42.759Z,49.22
2019-04-05T08:53:12.589Z,49.34
2019-04-05T08:55:42.225Z,48.54
2019-04-05T08:58:11.929Z,48.58
2019-04-05T09:00:42.018Z,49.12
2019-04-05T09:03:12.132Z,49.43
2019-04-05T09:05:41.830Z,49.23
2019-04-05T09:08:11.671Z,49.23
2019-04-05T09:10:41.304Z,48.99
2019-04-05T09:13:10.935Z,48.68
2019-04-05T09:15:40.686Z,48.93
2019-04-05T09:18:10.362Z,48.96
2019-04-05T09:20:40.068Z,48.97
2019-04-05T09:23:09.785Z,49.19
2019-04-05T09:25:39.431Z,48.84
2019-04-05T09:28:09.138Z,48.52
2019-04-05T09:30:38.853Z,48.62
2019-04-05T09:33:08.454Z,48.54
2019-04-05T09:35:38.101Z,48.57
2019-04-05T09:38:07.814Z,48.67
2019-04-05T09:40:38.554Z,48.76
2019-04-05T09:43:08.195Z,48.62
2019-04-05T09:45:37.923Z,48.72
2019-04-05T09:48:07.630Z,48.36
2019-04-05T09:50:37.290Z,48.15
2019-04-05T09:53:06.943Z,48.25
2019-04-05T09:55:36.643Z,47.98
2019-04-05T09:58:06.471Z,47.79
2019-04-05T10:00:36.159Z,47.72
2019-04-05T10:03:05.792Z,47.85
2019-04-05T10:05:35.696Z,48.00
2019-04-05T10:08:05.466Z,47.76
2019-04-05T10:10:35.117Z,47.31
2019-04-05T10:13:04.897Z,47.25
2019-04-05T10:15:34.565Z,47.15
2019-04-05T10:18:04.264Z,47.26
2019-04-05T10:20:33.901Z,47.00
2019-04-05T10:23:04.143Z,46.73
2019-04-05T10:25:33.781Z,46.96
2019-04-05T10:28:03.420Z,46.86
2019-04-05T10:30:33.192Z,46.61
2019-04-05T10:33:02.829Z,46.77
2019-04-05T10:35:32.481Z,46.77
2019-04-05T10:38:02.166Z,46.45
2019-04-05T10:40:32.217Z,46.59
2019-04-05T10:43:01.873Z,46.28
2019-04-05T10:45:31.610Z,46.16
2019-04-05T10:48:01.953Z,46.03
2019-04-05T10:50:31.651Z,46.09
2019-04-05T10:53:01.342Z,46.09
2019-04-05T10:55:30.976Z,46.04
2019-04-05T10:58:00.619Z,45.81
2019-04-05T11:00:30.639Z,45.79
2019-04-05T11:03:00.342Z,45.42
2019-04-05T11:05:30.001Z,45.28
2019-04-05T11:07:59.663Z,45.73
2019-04-05T11:10:29.579Z,45.35
2019-04-05T11:12:59.222Z,45.50
2019-04-05T11:15:31.047Z,45.20
2019-04-05T11:18:04.686Z,45.37
2019-04-05T11:20:34.462Z,45.13
2019-04-05T11:23:04.201Z,45.10
2019-04-05T11:25:33.833Z,44.86
2019-04-05T11:28:03.464Z,45.12
2019-04-05T11:30:41.568Z,44.77
2019-04-05T11:33:11.440Z,44.61
2019-04-05T11:35:41.147Z,45.09
2019-04-05T11:38:11.484Z,45.19
2019-04-05T11:40:41.754Z,45.44
2019-04-05T11:43:11.380Z,44.95
2019-04-05T11:45:41.239Z,44.51
2019-04-05T11:48:10.870Z,43.89
2019-04-05T11:50:40.508Z,43.55
2019-04-05T11:53:10.253Z,43.34
2019-04-05T11:55:39.953Z,43.51
2019-04-05T11:58:09.584Z,43.26
2019-04-05T12:00:40.922Z,43.05
2019-04-05T12:03:12.201Z,42.54
2019-04-05T12:05:41.842Z,42.38
2019-04-05T12:08:11.528Z,42.12
2019-04-05T12:10:41.183Z,41.31
2019-04-05T12:13:10.799Z,40.60
2019-04-05T12:15:40.544Z,39.76
2019-04-05T12:18:10.179Z,38.66
2019-04-05T12:20:49.102Z,37.21
2019-04-05T12:23:11.217Z,35.08
2019-04-05T12:26:05.003Z,34.52
2019-04-05T12:28:34.910Z,33.34
2019-04-05T12:31:04.597Z,33.05
2019-04-05T12:33:34.300Z,32.33
2019-04-05T12:36:04.741Z,31.21
2019-04-05T12:38:34.683Z,30.86
2019-04-05T12:41:20.735Z,30.24
2019-04-05T12:51:15.255Z,28.10
2019-04-05T12:53:45.487Z,27.59
2019-04-05T12:56:15.994Z,26.99
2019-04-05T12:58:45.672Z,26.07
2019-04-05T13:01:15.794Z,25.38
2019-04-05T13:03:45.911Z,25.34
2019-04-05T13:06:15.931Z,24.82
2019-04-05T13:08:46.420Z,24.39
2019-04-05T13:11:16.099Z,23.71
2019-04-05T13:13:46.017Z,23.16
2019-04-05T13:16:15.655Z,22.28
2019-04-05T13:18:45.304Z,21.67
2019-04-05T13:21:15.607Z,20.97
2019-04-05T13:23:45.449Z,21.17
2019-04-05T13:26:15.083Z,20.69
2019-04-05T13:28:46.479Z,20.02
2019-04-05T13:31:18.320Z,19.92
2019-04-05T13:33:47.442Z,19.65
2019-04-05T13:36:17.129Z,18.85
2019-04-05T13:38:54.642Z,18.56
2019-04-05T13:41:19.178Z,18.14
2019-04-05T13:43:49.014Z,17.82
2019-04-05T13:46:22.196Z,17.54
2019-04-05T13:48:49.973Z,17.19
2019-04-05T13:51:27.830Z,17.01
2019-04-05T13:53:50.994Z,16.77
2019-04-05T13:56:20.706Z,17.52
2019-04-05T13:58:50.407Z,18.58
2019-04-05T14:01:21.242Z,17.71
2019-04-05T14:03:51.225Z,16.97
2019-04-05T14:06:20.918Z,16.96
2019-04-05T14:08:50.565Z,18.00
2019-04-05T14:11:25.900Z,19.22
2019-04-05T14:13:55.294Z,20.65
2019-04-05T14:16:29.694Z,22.02
2019-04-05T14:19:21.436Z,23.22
2019-04-05T14:21:53.586Z,24.44
2019-04-05T14:24:23.504Z,25.28
2019-04-05T14:26:53.640Z,25.72
2019-04-05T14:29:23.279Z,26.33
2019-04-05T14:31:52.909Z,26.49
2019-04-05T14:34:23.678Z,26.60
2019-04-05T14:37:06.348Z,26.90
2019-04-05T14:39:36.064Z,26.98
2019-04-05T14:42:10.123Z,27.01
2019-04-05T14:44:37.758Z,27.45
2019-04-05T14:47:07.714Z,27.93
2019-04-05T14:49:37.420Z,28.13
2019-04-05T14:52:07.479Z,28.54
2019-04-05T14:54:37.187Z,28.64
2019-04-05T14:57:06.890Z,28.95
2019-04-05T14:59:36.546Z,28.88
2019-04-05T15:02:06.293Z,29.19
2019-04-05T15:04:35.933Z,30.43
2019-04-05T15:07:05.556Z,30.83
2019-04-05T15:09:35.222Z,30.83
2019-04-05T15:12:05.938Z,30.08
2019-04-05T15:14:35.572Z,29.98
2019-04-05T15:17:05.340Z,30.53
2019-04-05T15:19:34.969Z,30.37
2019-04-05T15:22:05.878Z,31.43
2019-04-05T15:24:35.818Z,31.81
2019-04-05T15:27:05.531Z,31.06
2019-04-05T15:29:35.179Z,31.20
2019-04-05T15:32:04.952Z,31.11
2019-04-05T15:34:34.860Z,31.64
2019-04-05T15:37:04.729Z,31.60
2019-04-05T15:39:34.405Z,31.88
2019-04-05T15:42:04.141Z,31.64
2019-04-05T15:44:33.778Z,31.59
2019-04-05T15:47:03.684Z,31.96
2019-04-05T15:49:33.398Z,31.36
2019-04-05T15:52:03.097Z,31.50
2019-04-05T15:54:33.407Z,31.87
2019-04-05T15:57:04.339Z,32.15
2019-04-05T15:59:34.514Z,32.59
2019-04-05T16:02:04.410Z,32.81
2019-04-05T16:04:34.082Z,32.90
2019-04-05T16:07:03.728Z,33.31
2019-04-05T16:09:33.412Z,33.44
2019-04-05T16:12:03.054Z,33.82
2019-04-05T16:14:33.488Z,34.02
2019-04-05T16:17:04.030Z,34.12
2019-04-05T16:19:33.665Z,34.32
2019-04-05T16:22:03.330Z,34.57
2019-04-05T16:24:33.025Z,34.69
2019-04-05T16:27:02.662Z,34.82
2019-04-05T16:29:32.320Z,34.91
2019-04-05T16:32:02.061Z,35.18
2019-04-05T16:34:31.708Z,35.16
2019-04-05T16:37:01.372Z,35.40
2019-04-05T16:39:31.048Z,35.44
2019-04-05T16:42:00.703Z,35.77
2019-04-05T16:44:30.355Z,35.98
2019-04-05T16:47:00.063Z,36.07
2019-04-05T16:49:29.739Z,36.11
2019-04-05T16:51:59.341Z,36.06
2019-04-05T16:54:29.196Z,36.29
2019-04-05T16:56:58.851Z,36.37
2019-04-05T16:59:28.478Z,36.59
2019-04-05T17:01:58.159Z,36.83
2019-04-05T17:04:27.859Z,37.01
2019-04-05T17:06:59.096Z,37.12
2019-04-05T17:09:28.979Z,37.27
2019-04-05T17:12:01.597Z,37.41
2019-04-05T17:14:31.315Z,37.64
2019-04-05T17:17:01.189Z,37.66
2019-04-05T17:19:30.855Z,37.94
2019-04-05T17:22:00.512Z,38.07
2019-04-05T17:24:30.266Z,38.20
2019-04-05T17:26:59.912Z,38.31
2019-04-05T17:29:29.559Z,38.44
2019-04-05T17:31:59.238Z,38.74
2019-04-05T17:34:28.881Z,38.86
2019-04-05T17:36:58.529Z,39.55
2019-04-05T17:39:28.395Z,39.83
2019-04-05T17:41:58.023Z,39.64
2019-04-05T17:44:27.675Z,39.53
2019-04-05T17:46:57.384Z,39.82
2019-04-05T17:49:27.189Z,39.90
2019-04-05T17:51:57.183Z,40.07
2019-04-05T17:54:26.824Z,40.26
2019-04-05T17:56:56.606Z,40.48
2019-04-05T17:59:26.336Z,40.63
2019-04-05T18:01:56.000Z,40.86
2019-04-05T18:04:25.703Z,41.02
2019-04-05T18:06:55.419Z,41.21
2019-04-05T18:09:27.291Z,41.57
2019-04-05T18:11:56.510Z,41.75
2019-04-05T18:14:26.122Z,42.11
2019-04-05T18:16:58.913Z,42.06
2019-04-05T18:19:28.760Z,42.08
2019-04-05T18:21:58.403Z,42.21
2019-04-05T18:24:28.103Z,42.34
2019-04-05T18:26:57.733Z,42.53
2019-04-05T18:29:27.368Z,42.71
2019-04-05T18:31:57.616Z,42.78
2019-04-05T18:34:27.246Z,42.82
2019-04-05T18:36:56.885Z,42.90
2019-04-05T18:39:26.612Z,42.87
2019-04-05T18:41:56.255Z,42.95
2019-04-05T18:44:26.147Z,43.05
2019-04-05T18:46:55.841Z,43.21
2019-04-05T18:49:26.546Z,43.04
2019-04-05T18:51:56.256Z,43.30
2019-04-05T18:54:25.981Z,43.47
2019-04-05T18:56:55.575Z,43.20
2019-04-05T18:59:25.210Z,43.28
2019-04-05T19:01:54.887Z,43.32
2019-04-05T19:04:24.513Z,43.30
2019-04-05T19:06:54.723Z,43.32
2019-04-05T19:09:24.513Z,43.42
2019-04-05T19:11:54.139Z,43.44
2019-04-05T19:14:23.793Z,43.43
2019-04-05T19:16:53.464Z,43.45
2019-04-05T19:19:23.110Z,43.57
2019-04-05T19:21:53.554Z,43.64
2019-04-05T19:24:23.237Z,43.71
2019-04-05T19:26:52.908Z,43.82
2019-04-05T19:29:22.548Z,43.82
2019-04-05T19:49:34.485Z,44.26
2019-04-05T19:52:04.117Z,44.37
2019-04-05T19:54:35.477Z,44.46
2019-04-05T19:57:05.251Z,44.47
2019-04-05T19:59:34.877Z,44.59
2019-04-05T20:02:04.655Z,44.76
2019-04-05T20:04:34.305Z,44.74
2019-04-05T20:07:03.948Z,44.78
2019-04-05T20:09:33.628Z,44.77
2019-04-05T20:12:03.269Z,44.80
2019-04-05T20:14:32.894Z,44.97
2019-04-05T20:17:02.556Z,44.95
2019-04-05T20:19:32.201Z,45.04
2019-04-05T20:22:01.852Z,45.02
2019-04-05T20:24:31.554Z,45.11
2019-04-05T20:27:01.247Z,45.14
2019-04-05T20:29:30.870Z,45.12
2019-04-05T20:32:00.589Z,45.25
2019-04-05T20:34:33.005Z,45.27
2019-04-05T20:37:02.631Z,45.42
2019-04-05T20:39:32.328Z,45.43
2019-04-05T20:42:01.962Z,45.57
2019-04-05T20:44:31.597Z,45.58
2019-04-05T20:47:01.358Z,45.71
2019-04-05T20:49:31.085Z,45.86
2019-04-05T20:52:00.718Z,46.19
2019-04-05T20:54:37.850Z,46.20
2019-04-05T20:57:07.538Z,46.40
2019-04-05T20:59:37.285Z,46.48
2019-04-05T21:02:07.102Z,46.56
2019-04-05T21:04:36.718Z,46.78
2019-04-05T21:07:06.471Z,46.68
2019-04-05T21:09:36.398Z,46.86
2019-04-05T21:12:06.007Z,46.88
2019-04-05T21:14:35.672Z,46.92
2019-04-05T21:17:05.303Z,47.01
2019-04-05T21:19:35.025Z,47.27
2019-04-05T21:22:07.067Z,47.12
2019-04-05T21:24:37.201Z,47.52
2019-04-05T21:27:06.919Z,47.42
2019-04-05T21:29:36.623Z,47.36
2019-04-05T21:32:06.719Z,47.59
2019-04-05T21:34:36.396Z,47.75
2019-04-05T21:37:06.090Z,47.77
2019-04-05T21:39:35.750Z,47.85
2019-04-05T21:42:05.535Z,47.96
2019-04-05T21:44:35.255Z,48.08
2019-04-05T21:47:04.879Z,48.03
2019-04-05T21:49:34.514Z,48.06
2019-04-05T21:52:04.239Z,48.14
2019-04-05T21:54:33.876Z,48.22
2019-04-05T21:57:03.526Z,48.21
2019-04-05T21:59:33.210Z,48.23
2019-04-05T22:02:03.083Z,48.27
2019-04-05T22:04:33.389Z,48.43
2019-04-05T22:07:03.121Z,48.35
2019-04-05T22:09:32.789Z,48.30
2019-04-05T22:12:02.423Z,48.31
2019-04-05T22:14:32.116Z,48.29
2019-04-05T22:17:01.833Z,48.32
2019-04-05T22:19:31.485Z,48.34
2019-04-05T22:22:01.328Z,48.23
2019-04-05T22:24:30.965Z,48.25
2019-04-05T22:27:00.976Z,48.50
2019-04-05T22:29:30.715Z,48.51
2019-04-05T22:32:00.392Z,48.61
2019-04-05T22:34:30.058Z,48.53
2019-04-05T22:36:59.905Z,48.57
2019-04-05T22:39:29.544Z,48.37
2019-04-05T22:41:59.171Z,48.42
2019-04-05T22:44:37.818Z,48.41
2019-04-05T22:47:00.475Z,48.39
2019-04-05T22:49:30.100Z,48.50
2019-04-05T22:51:59.968Z,48.50
2019-04-05T22:54:29.608Z,48.56
2019-04-05T22:56:59.609Z,48.68
2019-04-05T22:59:29.652Z,48.68
2019-04-05T23:01:59.291Z,48.74
2019-04-05T23:04:28.914Z,48.83
2019-04-05T23:06:58.577Z,48.93
2019-04-05T23:09:28.451Z,48.89
2019-04-05T23:11:58.096Z,49.02
2019-04-05T23:14:27.789Z,49.11
2019-04-05T23:16:57.427Z,49.15
2019-04-05T23:19:27.064Z,49.23
2019-04-05T23:21:56.724Z,49.26
2019-04-05T23:24:26.363Z,49.23
2019-04-05T23:26:56.258Z,49.23
2019-04-05T23:29:26.398Z,49.28
2019-04-05T23:31:56.038Z,49.27
2019-04-05T23:34:25.670Z,49.24
2019-04-05T23:36:55.663Z,49.13
2019-04-05T23:39:25.299Z,49.12
2019-04-05T23:41:54.933Z,49.24
2019-04-05T23:44:24.605Z,49.33
2019-04-05T23:46:54.242Z,49.37
2019-04-05T23:49:23.873Z,49.36
2019-04-05T23:51:54.010Z,49.36
2019-04-05T23:54:23.665Z,49.35
2019-04-05T23:56:53.322Z,49.54
2019-04-05T23:59:23.004Z,49.53
